sensor_id;sensor_type;location;lat;lon;timestamp;pressure;altitude;pressure_sealevel;temperature;humidity
71638;BME280;59485;43.542;-5.676;2023-01-30T05:47:14;102980.88;;;4.71;100.00
71638;BME280;59485;43.542;-5.676;2023-01-30T05:55:18;103003.03;;;4.65;100.00
71638;BME280;59485;43.542;-5.676;2023-01-30T05:57:55;103005.59;;;4.67;100.00
71638;BME280;59485;43.542;-5.676;2023-01-30T06:09:38;102988.72;;;4.76;100.00
71638;BME280;59485;43.542;-5.676;2023-01-30T06:12:09;102986.09;;;4.74;100.00
71638;BME280;59485;43.542;-5.676;2023-01-30T06:35:01;102996.41;;;4.69;100.00
71638;BME280;59485;43.542;-5.676;2023-01-30T06:37:26;102991.94;;;4.68;100.00
71638;BME280;59485;43.542;-5.676;2023-01-30T06:39:52;102994.56;;;4.70;100.00
71638;BME280;59485;43.542;-5.676;2023-01-30T06:42:17;102997.47;;;4.67;100.00
71638;BME280;59485;43.542;-5.676;2023-01-30T06:44:42;103001.94;;;4.68;100.00
71638;BME280;59485;43.542;-5.676;2023-01-30T06:47:08;103006.69;;;4.64;100.00
71638;BME280;59485;43.542;-5.676;2023-01-30T06:49:33;103009.41;;;4.64;100.00
71638;BME280;59485;43.542;-5.676;2023-01-30T06:51:58;103011.25;;;4.64;100.00
71638;BME280;59485;43.542;-5.676;2023-01-30T06:54:24;103011.44;;;4.61;100.00
71638;BME280;59485;43.542;-5.676;2023-01-30T06:56:49;103013.47;;;4.57;100.00
71638;BME280;59485;43.542;-5.676;2023-01-30T06:59:14;103012.88;;;4.52;100.00
71638;BME280;59485;43.542;-5.676;2023-01-30T07:01:40;103010.34;;;4.49;100.00
71638;BME280;59485;43.542;-5.676;2023-01-30T07:04:05;103006.28;;;4.42;100.00
71638;BME280;59485;43.542;-5.676;2023-01-30T07:06:30;103014.81;;;4.36;100.00
71638;BME280;59485;43.542;-5.676;2023-01-30T07:08:56;103020.53;;;4.31;100.00
71638;BME280;59485;43.542;-5.676;2023-01-30T07:11:23;103015.31;;;4.28;100.00
71638;BME280;59485;43.542;-5.676;2023-01-30T07:13:48;103013.63;;;4.26;100.00
71638;BME280;59485;43.542;-5.676;2023-01-30T07:16:14;103024.69;;;4.23;100.00
71638;BME280;59485;43.542;-5.676;2023-01-30T07:18:39;103026.50;;;4.22;100.00
71638;BME280;59485;43.542;-5.676;2023-01-30T07:21:04;103035.53;;;4.23;100.00
71638;BME280;59485;43.542;-5.676;2023-01-30T07:23:30;103039.69;;;4.14;100.00
71638;BME280;59485;43.542;-5.676;2023-01-30T07:25:55;103044.25;;;4.13;100.00
71638;BME280;59485;43.542;-5.676;2023-01-30T07:28:20;103042.78;;;4.08;100.00
71638;BME280;59485;43.542;-5.676;2023-01-30T07:30:46;103051.00;;;4.06;100.00
71638;BME280;59485;43.542;-5.676;2023-01-30T07:33:11;103058.97;;;4.09;100.00
71638;BME280;59485;43.542;-5.676;2023-01-30T07:35:37;103046.88;;;4.15;100.00
71638;BME280;59485;43.542;-5.676;2023-01-30T07:38:03;103058.59;;;4.15;100.00
71638;BME280;59485;43.542;-5.676;2023-01-30T07:40:28;103070.31;;;4.16;100.00
71638;BME280;59485;43.542;-5.676;2023-01-30T07:42:54;103068.56;;;4.15;100.00
71638;BME280;59485;43.542;-5.676;2023-01-30T07:45:20;103071.28;;;4.15;100.00
71638;BME280;59485;43.542;-5.676;2023-01-30T07:47:46;103072.25;;;4.14;100.00
71638;BME280;59485;43.542;-5.676;2023-01-30T07:50:11;103072.06;;;4.17;100.00
71638;BME280;59485;43.542;-5.676;2023-01-30T07:52:37;103079.25;;;4.18;100.00
71638;BME280;59485;43.542;-5.676;2023-01-30T07:55:02;103080.22;;;4.17;100.00
71638;BME280;59485;43.542;-5.676;2023-01-30T07:57:28;103085.47;;;4.20;100.00
71638;BME280;59485;43.542;-5.676;2023-01-30T07:59:53;103092.44;;;4.24;100.00
71638;BME280;59485;43.542;-5.676;2023-01-30T08:02:19;103100.50;;;4.26;100.00
71638;BME280;59485;43.542;-5.676;2023-01-30T08:04:44;103093.25;;;4.26;100.00
71638;BME280;59485;43.542;-5.676;2023-01-30T08:07:09;103109.53;;;4.26;100.00
71638;BME280;59485;43.542;-5.676;2023-01-30T08:09:35;103122.22;;;4.26;100.00
71638;BME280;59485;43.542;-5.676;2023-01-30T08:12:00;103125.09;;;4.23;100.00
71638;BME280;59485;43.542;-5.676;2023-01-30T08:14:25;103125.72;;;4.28;100.00
71638;BME280;59485;43.542;-5.676;2023-01-30T08:16:54;103139.09;;;4.31;100.00
71638;BME280;59485;43.542;-5.676;2023-01-30T08:19:20;103134.19;;;4.37;100.00
71638;BME280;59485;43.542;-5.676;2023-01-30T08:21:45;103130.59;;;4.37;100.00
71638;BME280;59485;43.542;-5.676;2023-01-30T08:24:10;103122.47;;;4.37;100.00
71638;BME280;59485;43.542;-5.676;2023-01-30T08:26:36;103127.50;;;4.43;100.00
71638;BME280;59485;43.542;-5.676;2023-01-30T08:29:01;103145.63;;;4.42;100.00
71638;BME280;59485;43.542;-5.676;2023-01-30T08:31:26;103137.66;;;4.39;100.00
71638;BME280;59485;43.542;-5.676;2023-01-30T08:33:52;103148.53;;;4.39;100.00
71638;BME280;59485;43.542;-5.676;2023-01-30T08:36:17;103150.97;;;4.44;100.00
71638;BME280;59485;43.542;-5.676;2023-01-30T08:38:42;103163.38;;;4.48;100.00
71638;BME280;59485;43.542;-5.676;2023-01-30T08:41:08;103166.91;;;4.50;100.00
71638;BME280;59485;43.542;-5.676;2023-01-30T08:43:33;103175.66;;;4.55;100.00
71638;BME280;59485;43.542;-5.676;2023-01-30T08:45:59;103174.69;;;4.56;100.00
71638;BME280;59485;43.542;-5.676;2023-01-30T08:48:24;103173.63;;;4.59;100.00
71638;BME280;59485;43.542;-5.676;2023-01-30T08:50:50;103168.88;;;4.62;100.00
71638;BME280;59485;43.542;-5.676;2023-01-30T08:53:16;103176.84;;;4.65;100.00
71638;BME280;59485;43.542;-5.676;2023-01-30T08:55:42;103170.56;;;4.65;100.00
71638;BME280;59485;43.542;-5.676;2023-01-30T08:58:08;103168.78;;;4.64;100.00
71638;BME280;59485;43.542;-5.676;2023-01-30T09:00:33;103177.81;;;4.64;100.00
71638;BME280;59485;43.542;-5.676;2023-01-30T09:02:59;103181.69;;;4.60;100.00
71638;BME280;59485;43.542;-5.676;2023-01-30T09:05:25;103179.75;;;4.62;100.00
71638;BME280;59485;43.542;-5.676;2023-01-30T09:07:51;103179.44;;;4.67;100.00
71638;BME280;59485;43.542;-5.676;2023-01-30T09:10:16;103182.09;;;4.68;100.00
71638;BME280;59485;43.542;-5.676;2023-01-30T09:12:41;103181.69;;;4.74;100.00
71638;BME280;59485;43.542;-5.676;2023-01-30T09:15:07;103182.22;;;4.81;100.00
71638;BME280;59485;43.542;-5.676;2023-01-30T09:17:33;103184.66;;;4.85;100.00
71638;BME280;59485;43.542;-5.676;2023-01-30T09:19:58;103188.72;;;4.93;100.00
71638;BME280;59485;43.542;-5.676;2023-01-30T09:22:23;103188.94;;;4.89;100.00
71638;BME280;59485;43.542;-5.676;2023-01-30T09:24:49;103186.00;;;4.93;100.00
71638;BME280;59485;43.542;-5.676;2023-01-30T09:27:14;103184.56;;;5.01;100.00
71638;BME280;59485;43.542;-5.676;2023-01-30T09:29:39;103187.00;;;5.06;100.00
71638;BME280;59485;43.542;-5.676;2023-01-30T09:32:05;103185.88;;;5.10;100.00
71638;BME280;59485;43.542;-5.676;2023-01-30T09:34:30;103183.53;;;5.18;100.00
71638;BME280;59485;43.542;-5.676;2023-01-30T09:36:59;103188.50;;;5.25;100.00
71638;BME280;59485;43.542;-5.676;2023-01-30T09:39:25;103202.38;;;5.35;100.00
71638;BME280;59485;43.542;-5.676;2023-01-30T09:49:38;103195.47;;;5.58;100.00
71638;BME280;59485;43.542;-5.676;2023-01-30T09:54:38;103204.59;;;5.71;100.00
71638;BME280;59485;43.542;-5.676;2023-01-30T09:59:43;103193.56;;;5.87;100.00
71638;BME280;59485;43.542;-5.676;2023-01-30T10:04:51;103204.00;;;5.94;100.00
71638;BME280;59485;43.542;-5.676;2023-01-30T10:10:01;103209.53;;;5.93;100.00
71638;BME280;59485;43.542;-5.676;2023-01-30T10:12:37;103204.34;;;6.02;100.00
71638;BME280;59485;43.542;-5.676;2023-01-30T10:30:51;103212.34;;;6.32;100.00
71638;BME280;59485;43.542;-5.676;2023-01-30T10:33:23;103217.78;;;6.32;100.00
71638;BME280;59485;43.542;-5.676;2023-01-30T10:36:11;103216.41;;;6.39;100.00
71638;BME280;59485;43.542;-5.676;2023-01-30T10:43:43;103229.94;;;6.54;100.00
71638;BME280;59485;43.542;-5.676;2023-01-30T10:46:14;103227.13;;;6.55;100.00
71638;BME280;59485;43.542;-5.676;2023-01-30T10:48:49;103219.81;;;6.56;100.00
71638;BME280;59485;43.542;-5.676;2023-01-30T10:54:13;103216.56;;;6.63;100.00
71638;BME280;59485;43.542;-5.676;2023-01-30T10:56:50;103212.78;;;6.66;100.00
71638;BME280;59485;43.542;-5.676;2023-01-30T10:59:23;103219.53;;;6.73;100.00
71638;BME280;59485;43.542;-5.676;2023-01-30T11:04:24;103210.44;;;6.87;100.00
71638;BME280;59485;43.542;-5.676;2023-01-30T11:06:51;103211.19;;;7.01;100.00
71638;BME280;59485;43.542;-5.676;2023-01-30T11:09:17;103211.53;;;7.09;100.00
71638;BME280;59485;43.542;-5.676;2023-01-30T11:14:14;103211.88;;;7.18;100.00
71638;BME280;59485;43.542;-5.676;2023-01-30T11:16:46;103197.81;;;7.24;100.00
71638;BME280;59485;43.542;-5.676;2023-01-30T11:19:13;103208.41;;;7.41;100.00
71638;BME280;59485;43.542;-5.676;2023-01-30T11:21:39;103206.19;;;7.46;100.00
71638;BME280;59485;43.542;-5.676;2023-01-30T11:24:14;103195.38;;;7.57;100.00
71638;BME280;59485;43.542;-5.676;2023-01-30T11:26:41;103199.28;;;7.66;100.00
71638;BME280;59485;43.542;-5.676;2023-01-30T11:31:47;103193.56;;;7.81;100.00
71638;BME280;59485;43.542;-5.676;2023-01-30T11:34:14;103185.69;;;7.89;100.00
71638;BME280;59485;43.542;-5.676;2023-01-30T11:36:40;103176.59;;;8.02;100.00
71638;BME280;59485;43.542;-5.676;2023-01-30T11:41:58;103173.34;;;8.20;100.00
71638;BME280;59485;43.542;-5.676;2023-01-30T11:44:36;103171.22;;;8.37;100.00
71638;BME280;59485;43.542;-5.676;2023-01-30T11:47:11;103163.53;;;8.42;100.00
71638;BME280;59485;43.542;-5.676;2023-01-30T11:49:40;103166.25;;;8.42;100.00
71638;BME280;59485;43.542;-5.676;2023-01-30T11:52:06;103162.09;;;8.49;100.00
71638;BME280;59485;43.542;-5.676;2023-01-30T11:54:33;103162.47;;;8.55;100.00
71638;BME280;59485;43.542;-5.676;2023-01-30T11:57:02;103167.94;;;8.55;100.00
71638;BME280;59485;43.542;-5.676;2023-01-30T11:59:35;103159.66;;;8.68;100.00
71638;BME280;59485;43.542;-5.676;2023-01-30T12:02:03;103163.66;;;8.75;100.00
71638;BME280;59485;43.542;-5.676;2023-01-30T12:04:30;103163.56;;;8.88;100.00
71638;BME280;59485;43.542;-5.676;2023-01-30T12:07:10;103150.28;;;8.94;100.00
71638;BME280;59485;43.542;-5.676;2023-01-30T12:09:40;103147.19;;;8.99;100.00
71638;BME280;59485;43.542;-5.676;2023-01-30T12:12:42;103147.06;;;9.00;100.00
71638;BME280;59485;43.542;-5.676;2023-01-30T12:14:59;103134.75;;;9.06;100.00
71638;BME280;59485;43.542;-5.676;2023-01-30T12:23:04;103131.41;;;9.47;100.00
71638;BME280;59485;43.542;-5.676;2023-01-30T12:25:22;103130.03;;;9.64;100.00
71638;BME280;59485;43.542;-5.676;2023-01-30T12:28:01;103130.25;;;9.72;100.00
71638;BME280;59485;43.542;-5.676;2023-01-30T12:32:57;103120.50;;;9.90;100.00
71638;BME280;59485;43.542;-5.676;2023-01-30T12:35:24;103119.13;;;9.96;100.00
71638;BME280;59485;43.542;-5.676;2023-01-30T12:43:05;103110.34;;;10.13;100.00
71638;BME280;59485;43.542;-5.676;2023-01-30T12:45:33;103108.94;;;10.30;100.00
71638;BME280;59485;43.542;-5.676;2023-01-30T12:55:44;103095.84;;;10.75;100.00
71638;BME280;59485;43.542;-5.676;2023-01-30T12:58:19;103093.78;;;10.67;100.00
71638;BME280;59485;43.542;-5.676;2023-01-30T13:05:59;103087.34;;;10.78;100.00
71638;BME280;59485;43.542;-5.676;2023-01-30T13:19:02;103077.13;;;10.38;100.00
71638;BME280;59485;43.542;-5.676;2023-01-30T13:21:35;103073.66;;;10.36;100.00
71638;BME280;59485;43.542;-5.676;2023-01-30T13:26:29;103072.97;;;10.23;100.00
71638;BME280;59485;43.542;-5.676;2023-01-30T13:29:11;103077.44;;;10.24;100.00
71638;BME280;59485;43.542;-5.676;2023-01-30T13:31:40;103067.91;;;10.19;100.00
71638;BME280;59485;43.542;-5.676;2023-01-30T13:34:23;103058.72;;;10.29;100.00
71638;BME280;59485;43.542;-5.676;2023-01-30T13:39:32;103056.94;;;10.39;100.00
71638;BME280;59485;43.542;-5.676;2023-01-30T13:41:59;103065.31;;;10.38;100.00
71638;BME280;59485;43.542;-5.676;2023-01-30T13:44:29;103051.84;;;10.35;100.00
71638;BME280;59485;43.542;-5.676;2023-01-30T13:46:56;103056.06;;;10.39;100.00
71638;BME280;59485;43.542;-5.676;2023-01-30T13:49:34;103049.28;;;10.22;100.00
71638;BME280;59485;43.542;-5.676;2023-01-30T13:57:31;103035.00;;;10.19;100.00
71638;BME280;59485;43.542;-5.676;2023-01-30T14:02:28;103045.69;;;10.22;100.00
71638;BME280;59485;43.542;-5.676;2023-01-30T14:04:55;103042.63;;;10.36;100.00
71638;BME280;59485;43.542;-5.676;2023-01-30T14:07:24;103036.22;;;10.26;100.00
71638;BME280;59485;43.542;-5.676;2023-01-30T14:12:16;103034.47;;;10.25;100.00
71638;BME280;59485;43.542;-5.676;2023-01-30T14:14:55;103035.88;;;10.19;100.00
71638;BME280;59485;43.542;-5.676;2023-01-30T14:17:21;103030.72;;;10.26;100.00
71638;BME280;59485;43.542;-5.676;2023-01-30T14:22:23;103019.63;;;10.27;100.00
71638;BME280;59485;43.542;-5.676;2023-01-30T14:27:36;103017.72;;;10.48;100.00
71638;BME280;59485;43.542;-5.676;2023-01-30T14:30:12;103014.31;;;10.56;100.00
71638;BME280;59485;43.542;-5.676;2023-01-30T14:32:51;103019.72;;;10.67;100.00
71638;BME280;59485;43.542;-5.676;2023-01-30T14:35:21;103012.28;;;10.79;100.00
71638;BME280;59485;43.542;-5.676;2023-01-30T14:37:49;103018.97;;;10.65;100.00
71638;BME280;59485;43.542;-5.676;2023-01-30T14:46:05;103006.56;;;10.40;100.00
71638;BME280;59485;43.542;-5.676;2023-01-30T14:53:36;103008.31;;;10.62;100.00
71638;BME280;59485;43.542;-5.676;2023-01-30T14:56:11;103003.34;;;10.56;100.00
71638;BME280;59485;43.542;-5.676;2023-01-30T14:58:36;102995.78;;;10.48;100.00
71638;BME280;59485;43.542;-5.676;2023-01-30T15:01:02;103000.88;;;10.53;100.00
71638;BME280;59485;43.542;-5.676;2023-01-30T15:03:28;103005.38;;;10.54;100.00
71638;BME280;59485;43.542;-5.676;2023-01-30T15:05:57;103005.03;;;10.47;100.00
71638;BME280;59485;43.542;-5.676;2023-01-30T15:08:24;103006.44;;;10.63;100.00
71638;BME280;59485;43.542;-5.676;2023-01-30T15:13:35;103002.03;;;10.50;100.00
71638;BME280;59485;43.542;-5.676;2023-01-30T15:31:23;102996.00;;;10.87;100.00
71638;BME280;59485;43.542;-5.676;2023-01-30T15:33:50;102995.56;;;10.91;100.00
71638;BME280;59485;43.542;-5.676;2023-01-30T15:38:54;102996.59;;;10.90;100.00
71638;BME280;59485;43.542;-5.676;2023-01-30T15:41:19;102991.66;;;10.84;100.00
71638;BME280;59485;43.542;-5.676;2023-01-30T15:43:54;102992.81;;;10.82;100.00
71638;BME280;59485;43.542;-5.676;2023-01-30T15:46:31;103000.63;;;10.86;100.00
71638;BME280;59485;43.542;-5.676;2023-01-30T15:51:28;103001.09;;;11.01;100.00
71638;BME280;59485;43.542;-5.676;2023-01-30T15:53:55;103001.56;;;11.06;100.00
71638;BME280;59485;43.542;-5.676;2023-01-30T15:56:26;103000.69;;;11.06;100.00
71638;BME280;59485;43.542;-5.676;2023-01-30T15:58:53;103003.31;;;11.07;100.00
71638;BME280;59485;43.542;-5.676;2023-01-30T16:01:22;103003.31;;;11.07;100.00
71638;BME280;59485;43.542;-5.676;2023-01-30T16:03:47;102995.91;;;10.98;100.00
71638;BME280;59485;43.542;-5.676;2023-01-30T16:08:53;102997.50;;;11.01;100.00
71638;BME280;59485;43.542;-5.676;2023-01-30T16:11:30;103000.06;;;10.93;100.00
71638;BME280;59485;43.542;-5.676;2023-01-30T16:13:55;102996.34;;;11.03;100.00
71638;BME280;59485;43.542;-5.676;2023-01-30T16:16:21;103003.56;;;11.04;100.00
71638;BME280;59485;43.542;-5.676;2023-01-30T16:18:48;103005.50;;;11.13;100.00
71638;BME280;59485;43.542;-5.676;2023-01-30T16:21:22;103002.97;;;11.01;100.00
71638;BME280;59485;43.542;-5.676;2023-01-30T16:23:53;102995.44;;;10.93;100.00
71638;BME280;59485;43.542;-5.676;2023-01-30T16:26:19;102999.09;;;11.03;100.00
71638;BME280;59485;43.542;-5.676;2023-01-30T16:28:48;103002.00;;;11.11;100.00
71638;BME280;59485;43.542;-5.676;2023-01-30T16:31:15;103004.31;;;11.06;100.00
71638;BME280;59485;43.542;-5.676;2023-01-30T16:33:41;103011.91;;;10.93;100.00
71638;BME280;59485;43.542;-5.676;2023-01-30T16:38:44;103015.69;;;11.42;100.00
71638;BME280;59485;43.542;-5.676;2023-01-30T16:44:08;103021.09;;;11.62;100.00
71638;BME280;59485;43.542;-5.676;2023-01-30T16:49:05;103020.25;;;11.72;100.00
71638;BME280;59485;43.542;-5.676;2023-01-30T16:51:37;103022.59;;;12.05;100.00
71638;BME280;59485;43.542;-5.676;2023-01-30T16:54:02;103021.72;;;11.95;100.00
71638;BME280;59485;43.542;-5.676;2023-01-30T16:56:29;103020.84;;;12.04;100.00
71638;BME280;59485;43.542;-5.676;2023-01-30T16:58:57;103020.25;;;12.10;100.00
71638;BME280;59485;43.542;-5.676;2023-01-30T17:01:32;103041.66;;;11.78;100.00
71638;BME280;59485;43.542;-5.676;2023-01-30T17:04:02;103037.06;;;12.07;100.00
71638;BME280;59485;43.542;-5.676;2023-01-30T17:06:30;103045.16;;;11.80;100.00
71638;BME280;59485;43.542;-5.676;2023-01-30T17:08:58;103043.38;;;11.69;100.00
71638;BME280;59485;43.542;-5.676;2023-01-30T17:16:32;103051.47;;;11.21;100.00
71638;BME280;59485;43.542;-5.676;2023-01-30T17:18:58;103054.72;;;11.05;100.00
71638;BME280;59485;43.542;-5.676;2023-01-30T17:21:26;103054.00;;;10.73;100.00
71638;BME280;59485;43.542;-5.676;2023-01-30T17:23:53;103059.53;;;10.62;100.00
71638;BME280;59485;43.542;-5.676;2023-01-30T17:26:20;103063.03;;;10.43;100.00
71638;BME280;59485;43.542;-5.676;2023-01-30T17:28:45;103068.97;;;10.16;100.00
71638;BME280;59485;43.542;-5.676;2023-01-30T17:31:11;103067.66;;;10.10;100.00
71638;BME280;59485;43.542;-5.676;2023-01-30T17:33:37;103066.69;;;10.00;100.00
71638;BME280;59485;43.542;-5.676;2023-01-30T17:36:02;103071.72;;;9.84;100.00
71638;BME280;59485;43.542;-5.676;2023-01-30T17:38:29;103076.38;;;9.72;100.00
71638;BME280;59485;43.542;-5.676;2023-01-30T17:40:54;103088.31;;;9.60;100.00
71638;BME280;59485;43.542;-5.676;2023-01-30T17:43:20;103090.94;;;9.51;100.00
71638;BME280;59485;43.542;-5.676;2023-01-30T17:45:45;103088.59;;;9.46;100.00
71638;BME280;59485;43.542;-5.676;2023-01-30T17:48:12;103083.53;;;9.30;100.00
71638;BME280;59485;43.542;-5.676;2023-01-30T17:50:37;103085.63;;;9.16;100.00
71638;BME280;59485;43.542;-5.676;2023-01-30T17:53:03;103097.09;;;9.10;100.00
71638;BME280;59485;43.542;-5.676;2023-01-30T17:55:28;103093.81;;;9.04;100.00
71638;BME280;59485;43.542;-5.676;2023-01-30T17:57:53;103089.38;;;8.92;100.00
71638;BME280;59485;43.542;-5.676;2023-01-30T18:00:20;103098.19;;;8.85;100.00
71638;BME280;59485;43.542;-5.676;2023-01-30T18:02:46;103103.13;;;8.80;100.00
71638;BME280;59485;43.542;-5.676;2023-01-30T18:05:12;103107.63;;;8.81;100.00
71638;BME280;59485;43.542;-5.676;2023-01-30T18:07:37;103098.66;;;8.68;100.00
71638;BME280;59485;43.542;-5.676;2023-01-30T18:10:03;103106.84;;;8.68;100.00
71638;BME280;59485;43.542;-5.676;2023-01-30T18:12:29;103112.78;;;8.61;100.00
71638;BME280;59485;43.542;-5.676;2023-01-30T18:14:54;103111.41;;;8.56;100.00
71638;BME280;59485;43.542;-5.676;2023-01-30T18:17:19;103108.53;;;8.46;100.00
71638;BME280;59485;43.542;-5.676;2023-01-30T18:19:45;103112.47;;;8.42;100.00
71638;BME280;59485;43.542;-5.676;2023-01-30T18:22:10;103119.94;;;8.40;100.00
71638;BME280;59485;43.542;-5.676;2023-01-30T18:24:36;103125.88;;;8.34;100.00
71638;BME280;59485;43.542;-5.676;2023-01-30T18:27:01;103130.13;;;8.25;100.00
71638;BME280;59485;43.542;-5.676;2023-01-30T18:29:26;103138.94;;;8.18;100.00
71638;BME280;59485;43.542;-5.676;2023-01-30T18:31:52;103130.72;;;8.18;100.00
71638;BME280;59485;43.542;-5.676;2023-01-30T18:34:17;103128.59;;;8.10;100.00
71638;BME280;59485;43.542;-5.676;2023-01-30T18:36:42;103132.19;;;8.11;100.00
71638;BME280;59485;43.542;-5.676;2023-01-30T18:39:08;103137.00;;;8.07;100.00
71638;BME280;59485;43.542;-5.676;2023-01-30T18:41:33;103139.13;;;8.04;100.00
71638;BME280;59485;43.542;-5.676;2023-01-30T18:44:01;103142.06;;;8.01;100.00
71638;BME280;59485;43.542;-5.676;2023-01-30T18:46:27;103146.00;;;7.97;100.00
71638;BME280;59485;43.542;-5.676;2023-01-30T18:48:53;103148.97;;;7.94;100.00
71638;BME280;59485;43.542;-5.676;2023-01-30T18:51:20;103146.38;;;7.92;100.00
71638;BME280;59485;43.542;-5.676;2023-01-30T18:53:46;103143.84;;;7.89;100.00
71638;BME280;59485;43.542;-5.676;2023-01-30T18:56:16;103150.53;;;7.85;100.00
71638;BME280;59485;43.542;-5.676;2023-01-30T18:58:42;103152.41;;;7.84;100.00
71638;BME280;59485;43.542;-5.676;2023-01-30T19:01:16;103149.88;;;7.81;100.00
71638;BME280;59485;43.542;-5.676;2023-01-30T19:03:42;103148.91;;;7.82;100.00
71638;BME280;59485;43.542;-5.676;2023-01-30T19:06:08;103153.84;;;7.77;100.00
71638;BME280;59485;43.542;-5.676;2023-01-30T19:08:34;103154.06;;;7.74;100.00
71638;BME280;59485;43.542;-5.676;2023-01-30T19:11:06;103154.19;;;7.73;100.00
71638;BME280;59485;43.542;-5.676;2023-01-30T19:13:50;103150.81;;;7.69;100.00
71638;BME280;59485;43.542;-5.676;2023-01-30T19:16:15;103157.38;;;7.67;100.00
71638;BME280;59485;43.542;-5.676;2023-01-30T19:18:41;103159.22;;;7.66;100.00
71638;BME280;59485;43.542;-5.676;2023-01-30T19:21:06;103156.72;;;7.63;100.00
71638;BME280;59485;43.542;-5.676;2023-01-30T19:23:31;103160.78;;;7.58;100.00
71638;BME280;59485;43.542;-5.676;2023-01-30T19:25:58;103162.63;;;7.57;100.00
71638;BME280;59485;43.542;-5.676;2023-01-30T19:28:25;103160.00;;;7.56;100.00
71638;BME280;59485;43.542;-5.676;2023-01-30T19:30:50;103164.81;;;7.52;100.00
71638;BME280;59485;43.542;-5.676;2023-01-30T19:33:16;103162.06;;;7.52;100.00
71638;BME280;59485;43.542;-5.676;2023-01-30T19:35:41;103167.00;;;7.47;100.00
71638;BME280;59485;43.542;-5.676;2023-01-30T19:38:07;103165.25;;;7.46;100.00
71638;BME280;59485;43.542;-5.676;2023-01-30T19:40:33;103165.25;;;7.46;100.00
71638;BME280;59485;43.542;-5.676;2023-01-30T19:42:58;103164.63;;;7.42;100.00
71638;BME280;59485;43.542;-5.676;2023-01-30T19:45:24;103164.63;;;7.42;100.00
71638;BME280;59485;43.542;-5.676;2023-01-30T19:47:49;103170.09;;;7.42;100.00
71638;BME280;59485;43.542;-5.676;2023-01-30T19:50:14;103163.88;;;7.40;100.00
71638;BME280;59485;43.542;-5.676;2023-01-30T19:52:40;103172.25;;;7.37;100.00
71638;BME280;59485;43.542;-5.676;2023-01-30T19:55:06;103170.41;;;7.38;100.00
71638;BME280;59485;43.542;-5.676;2023-01-30T19:57:31;103177.72;;;7.37;100.00
71638;BME280;59485;43.542;-5.676;2023-01-30T19:59:57;103180.78;;;7.33;100.00
71638;BME280;59485;43.542;-5.676;2023-01-30T20:02:22;103185.56;;;7.29;100.00
71638;BME280;59485;43.542;-5.676;2023-01-30T20:04:47;103189.38;;;7.27;100.00
71638;BME280;59485;43.542;-5.676;2023-01-30T20:07:13;103193.44;;;7.21;100.00
71638;BME280;59485;43.542;-5.676;2023-01-30T20:09:38;103195.19;;;7.09;100.00
71638;BME280;59485;43.542;-5.676;2023-01-30T20:12:03;103197.69;;;7.00;100.00
71638;BME280;59485;43.542;-5.676;2023-01-30T20:14:29;103205.22;;;6.96;100.00
71638;BME280;59485;43.542;-5.676;2023-01-30T20:16:54;103207.03;;;6.83;100.00
71638;BME280;59485;43.542;-5.676;2023-01-30T20:19:19;103209.22;;;6.78;100.00
71638;BME280;59485;43.542;-5.676;2023-01-30T20:21:45;103218.91;;;6.69;100.00
71638;BME280;59485;43.542;-5.676;2023-01-30T20:24:11;103217.56;;;6.62;100.00
71638;BME280;59485;43.542;-5.676;2023-01-30T20:26:37;103224.31;;;6.57;100.00
71638;BME280;59485;43.542;-5.676;2023-01-30T20:29:04;103229.94;;;6.54;100.00
71638;BME280;59485;43.542;-5.676;2023-01-30T20:31:30;103220.25;;;6.50;100.00
71638;BME280;59485;43.542;-5.676;2023-01-30T20:33:56;103223.59;;;6.40;100.00
71638;BME280;59485;43.542;-5.676;2023-01-30T20:36:22;103227.72;;;6.33;100.00
71638;BME280;59485;43.542;-5.676;2023-01-30T20:38:48;103234.84;;;6.22;100.00
71638;BME280;59485;43.542;-5.676;2023-01-30T20:41:15;103233.88;;;6.23;100.00
71638;BME280;59485;43.542;-5.676;2023-01-30T20:43:41;103232.22;;;6.20;100.00
71638;BME280;59485;43.542;-5.676;2023-01-30T20:46:10;103227.59;;;6.08;100.00
71638;BME280;59485;43.542;-5.676;2023-01-30T20:48:36;103235.88;;;6.07;100.00
71638;BME280;59485;43.542;-5.676;2023-01-30T20:51:05;103240.53;;;6.05;100.00
71638;BME280;59485;43.542;-5.676;2023-01-30T20:53:32;103245.69;;;5.95;100.00
71638;BME280;59485;43.542;-5.676;2023-01-30T20:55:58;103251.59;;;5.87;100.00
71638;BME280;59485;43.542;-5.676;2023-01-30T20:58:24;103258.06;;;5.72;100.00
71638;BME280;59485;43.542;-5.676;2023-01-30T21:00:49;103255.59;;;5.68;100.00
71638;BME280;59485;43.542;-5.676;2023-01-30T21:03:15;103256.19;;;5.58;100.00
71638;BME280;59485;43.542;-5.676;2023-01-30T21:05:40;103265.91;;;5.48;100.00
71638;BME280;59485;43.542;-5.676;2023-01-30T21:08:05;103264.53;;;5.41;100.00
71638;BME280;59485;43.542;-5.676;2023-01-30T21:10:32;103270.16;;;5.38;100.00
71638;BME280;59485;43.542;-5.676;2023-01-30T21:12:58;103270.16;;;5.24;100.00
71638;BME280;59485;43.542;-5.676;2023-01-30T21:15:23;103271.69;;;5.28;100.00
71638;BME280;59485;43.542;-5.676;2023-01-30T21:17:51;103273.75;;;5.24;100.00
71638;BME280;59485;43.542;-5.676;2023-01-30T21:20:17;103276.16;;;5.29;100.00
71638;BME280;59485;43.542;-5.676;2023-01-30T21:22:42;103269.97;;;5.27;100.00
71638;BME280;59485;43.542;-5.676;2023-01-30T21:25:07;103278.63;;;5.34;100.00
71638;BME280;59485;43.542;-5.676;2023-01-30T21:27:33;103285.09;;;5.31;100.00
71638;BME280;59485;43.542;-5.676;2023-01-30T21:29:58;103283.44;;;5.28;100.00
71638;BME280;59485;43.542;-5.676;2023-01-30T21:32:24;103290.63;;;5.29;100.00
71638;BME280;59485;43.542;-5.676;2023-01-30T21:34:49;103281.41;;;5.32;100.00
71638;BME280;59485;43.542;-5.676;2023-01-30T21:37:15;103286.06;;;5.30;100.00
71638;BME280;59485;43.542;-5.676;2023-01-30T21:39:59;103296.38;;;5.25;100.00